Airfield :
LOGIN :

Register | Disclaimer

   EN    FR    IT 

 










Legend :    VFR   Marginal VFR   IFR   Intensive IFR   Very Intensive IFR
Visi :
Ceiling :
>= 8 km
>= 3000ft
5 to 8 km
1000 to 3000 ft
1500m to 5 km
500 to 1000 ft
800 to 1500m
200 to 500 ft
< 800m
< 200 ft
Symbols :   Thunderstorms  Fog  Heavy snow  Heavy precipitations  Wind > 20 kt
SIGMETs :     Misc.  Thunderstorms  Icing  Turbulence  Mountain Waves  Volcanic Ashes






- Airport Elevation : 120 ft
- IATA code : MME


EGNV - Durham Tees valley

CURRENT METAR :
  • 292050Z 24021KT 9999 SCT021 SCT029 09/06 Q1000

EXPIRED METARs :
  • 292020Z 23018KT 9999 BKN023 08/05 Q1000
  • 291950Z 23015KT 9999 SCT025 08/05 Q1000
  • 291920Z 23017KT 9999 FEW018 SCT026 09/05 Q1000
  • 291850Z 23018KT 9999 FEW025 08/05 Q1000
  • 291820Z 23017KT 9999 SCT024 08/04 Q1000

TAF TAF EGNV
Valid from the 29 at 18:00 until the 29 at 22:00 UTC


291701Z 2918/2922 24015KT 9999 SCT025
PROB30
TEMPO 2918/2922 24017G28KT 8000 -RA BKN014
ATIS : +44 9012 018 111



MET'MAP, your aeronautical weather chart ! - Copyright ORBIFLY December 2007 - Disclaimer

ORBIFLY MET'MAP TEAM :

Programming & Development : Alexandra Zaïnal
Concept & original design : Baudouin d'Aumeries
Assistance for programming : Marc-Olivier Méhu
Technical & hardware support : Manuel Goepfert

Contact : metmap@orbifly.com




SOURCES & CREDITS :

   NOAA